Pagina principale
METAR-TAF:

METAR-TAF

Aeroporti :

Aeroporto militare Mario de Bernardi

Pratica Di Mare, Italia

latitudine: 41-39N, longitudine: 012-27E, altezza: 6 m

Osservazione

Il bollettino è stato emesso 58 minuti fa, alle 05:55 UTC
Vento 4 kt da nord
Temperature 11°C
Umidità 71%
Pressione 1024 hPa
Visibilità 10 km o più
nessuna nube inferiore a 1500 m e nessun cumulonembo

METAR: LIRE 200555Z 01004KT CAVOK 11/06 Q1024 RMK FEW FEW220 VIS MIN 9999 WIND THR13 02003KT WIND THR31 /////KT BLU

Ora: 08:53 (06:53 UTC)

Previsione

Il bollettino è stato emesso 1 ora e 53 minuti fa, alle 05:00 UTC
Previsione valida dal 20 alle 06 UTC al 20 alle 15 UTC
Vento 6 kt da nord/nord-est
Visibilità 10 km o più
nessuna nube inferiore a 1500 m e nessun cumulonembo
Evoluzione graduale
dal 20 alle 09 UTC al 20 alle 11 UTC
Vento 10 kt da sud-ovest

TAF: LIRE 200500Z 2006/2015 02006KT CAVOK BECMG 2009/2011 22010KT

Osservazioni e previsioni meteorologiche di più di 4000 aeroporti (messaggi METAR e TAF).

Le stazioni disponibili sono rappresentate dai dischi gialli e rossi sulla carta.

Puntare il mouse per vedere il nome della stazione.

Clicca sopra per visualizzare le osservazioni e previsioni meteorologiche.

Per cambiare la mappa : fare clic sui pulsanti verdi con una croce nera per ingrandire, il pulsante verde con un trattino per diminuire, o sulla freccia verde per le mappe adiacenti.


METAR-TAF: